Sunnydell, Idaho
Current Conditions -  °F | °C
As of 1:53 AM on Sunday 21 Dec 2014 (Local Time) from KRXE Reporting Station
Light Snow Light Snow  
Wind Chill: 21°   Ceiling: 600
Heat Index: 32°   Visibility: 1mi
Dew Point: 32°   Wind: 16mph
Humidity: 100%   Direction: 210°SSW
Pressure: 29.82"   Gusts: 24mph
Location:  43.7568°N, 111.624°W
Report Text: KRXE 210853Z AUTO 21014G21KT 1SM -SN BR OVC006 00/00 A2982 RMK AO2 SLP116 P0006 60009 T00000000 56025
Loading
Personal Weather Stations






























Interactive Weather Map New forecast layout! Learn more

10-Day Weather Forecast

Advertisements
Track Severe Weather on mobile